Time;durP1;ratioP1;P1;durP2;ratioP2;P2;SDS_P1;SDS_P2;PMS_P1;PMS_P2;Temp;Humidity;BMP_temperature;BMP_pressure;BME280_temperature;BME280_humidity;BME280_pressure;Samples;Min_cycle;Max_cycle;Signal;HPM_P1;HPM_P2
2021/01/08 00:01:10;;;;;;;10.35;4.80;;;;;;;-0.60;74.27;96324.34;1871270;77;21454;-89
2021/01/08 00:03:41;;;;;;;6.30;3.98;;;;;;;-0.60;74.27;96324.34;1871029;77;21469;-88
2021/01/08 00:06:09;;;;;;;6.78;3.85;;;;;;;-0.60;74.13;96321.73;1871036;77;21440;-88
2021/01/08 00:08:36;;;;;;;7.65;2.62;;;;;;;-0.65;74.11;96323.40;1870888;77;21121;-88
2021/01/08 00:11:03;;;;;;;7.35;4.12;;;;;;;-0.67;73.92;96324.92;1871002;77;21494;-88
2021/01/08 00:13:30;;;;;;;8.15;3.80;;;;;;;-0.69;73.74;96321.73;1871066;76;21395;-89
2021/01/08 00:15:57;;;;;;;8.03;4.42;;;;;;;-0.68;73.97;96324.63;1871097;77;21110;-88
2021/01/08 00:18:24;;;;;;;6.30;4.00;;;;;;;-0.71;73.86;96323.73;1870905;76;21079;-88
2021/01/08 00:20:52;;;;;;;8.38;3.37;;;;;;;-0.73;73.39;96317.95;1892615;76;21111;-88
2021/01/08 00:23:19;;;;;;;5.67;3.22;;;;;;;-0.73;73.39;96317.95;1897409;76;21111;-89
2021/01/08 00:25:51;;;;;;;7.30;3.47;;;;;;;-0.81;73.08;96313.54;1897518;76;21099;-89
2021/01/08 00:28:18;;;;;;;8.50;4.28;;;;;;;-0.81;73.08;96313.54;1897380;76;21119;-89
2021/01/08 00:30:45;;;;;;;5.97;3.72;;;;;;;-0.71;73.00;96322.43;1897362;76;21123;-89
2021/01/08 00:33:12;;;;;;;5.90;2.72;;;;;;;-0.70;73.14;96321.45;1897398;76;21470;-88
2021/01/08 00:35:40;;;;;;;7.22;3.58;;;;;;;-0.69;72.79;96322.24;1897666;76;21242;-89
2021/01/08 00:38:08;;;;;;;5.65;2.50;;;;;;;-0.69;72.66;96333.95;1897445;75;21436;-89
2021/01/08 00:40:35;;;;;;;3.62;2.22;;;;;;;-0.68;72.35;96329.04;1897642;76;21116;-89
2021/01/08 00:43:03;;;;;;;4.62;2.45;;;;;;;-0.68;72.18;96335.05;1897455;76;21135;-88
2021/01/08 00:45:30;;;;;;;5.55;3.12;;;;;;;-0.68;72.18;96335.05;1897526;76;21079;-88
2021/01/08 00:47:57;;;;;;;8.58;3.50;;;;;;;-0.81;72.56;96321.34;1897415;76;21462;-89
2021/01/08 00:50:24;;;;;;;6.67;3.25;;;;;;;-0.81;72.56;96321.34;1880623;75;21530;-88
2021/01/08 00:52:51;;;;;;;6.40;3.77;;;;;;;-0.71;72.82;96339.86;1870999;77;21106;-88
2021/01/08 00:55:18;;;;;;;6.55;3.45;;;;;;;-0.70;72.86;96342.78;1870912;76;21137;-88
2021/01/08 00:57:45;;;;;;;6.12;3.35;;;;;;;-0.71;72.98;96348.97;1870889;77;21109;-88
2021/01/08 01:00:14;;;;;;;6.37;3.58;;;;;;;-0.70;72.94;96351.38;1870984;76;21484;-88
2021/01/08 01:02:41;;;;;;;7.67;4.00;;;;;;;-0.69;73.05;96352.17;1870884;77;21466;-89
2021/01/08 01:05:10;;;;;;;5.60;3.65;;;;;;;-0.69;73.45;96355.58;1870955;76;21244;-89
2021/01/08 01:07:37;;;;;;;6.80;3.55;;;;;;;-0.66;73.84;96359.05;1871137;76;21102;-88
2021/01/08 01:10:05;;;;;;;7.33;4.30;;;;;;;-0.74;74.00;96338.98;1870810;77;21125;-89
2021/01/08 01:12:32;;;;;;;7.53;4.30;;;;;;;-0.64;74.21;96360.92;1870989;77;21137;-89
2021/01/08 01:14:59;;;;;;;8.73;4.72;;;;;;;-0.63;74.38;96350.80;1870903;77;21246;-88
2021/01/08 01:17:26;;;;;;;7.40;3.83;;;;;;;-0.63;74.32;96348.70;1871019;77;21498;-88
2021/01/08 01:19:54;;;;;;;6.90;4.33;;;;;;;-0.63;74.37;96350.80;1885914;75;21115;-88
2021/01/08 01:22:21;;;;;;;8.15;4.12;;;;;;;-0.60;74.44;96353.48;1906179;75;21091;-88
2021/01/08 01:24:48;;;;;;;8.20;4.30;;;;;;;-0.60;74.44;96353.48;1906062;75;21447;-89
2021/01/08 01:27:15;;;;;;;6.78;3.98;;;;;;;-0.62;74.29;96349.80;1906260;75;21118;-88
2021/01/08 01:29:42;;;;;;;5.90;3.47;;;;;;;-0.60;74.27;96351.67;1906093;75;21126;-88
2021/01/08 01:32:09;;;;;;;7.55;4.20;;;;;;;-0.62;74.22;96356.80;1906250;75;21102;-89
2021/01/08 01:34:36;;;;;;;9.23;4.42;;;;;;;-0.61;74.39;96358.40;1906353;75;21114;-89
2021/01/08 01:37:03;;;;;;;5.12;2.90;;;;;;;-0.65;74.49;96346.83;1906158;75;21103;-88
2021/01/08 01:39:30;;;;;;;8.00;4.28;;;;;;;-0.62;74.47;96351.60;1905994;75;21151;-89
2021/01/08 01:41:57;;;;;;;7.80;4.15;;;;;;;-0.63;74.44;96348.20;1906162;75;21145;-88
2021/01/08 01:44:24;;;;;;;5.37;3.87;;;;;;;-0.63;74.44;96348.20;1906100;75;21125;-88
2021/01/08 01:46:51;;;;;;;7.17;4.22;;;;;;;-0.65;74.49;96343.72;1906171;75;21110;-88
2021/01/08 01:49:18;;;;;;;6.37;3.80;;;;;;;-0.69;74.45;96343.06;1875678;75;21126;-89
2021/01/08 01:51:45;;;;;;;7.00;3.25;;;;;;;-0.69;74.62;96337.36;1906130;75;21137;-89
2021/01/08 01:54:12;;;;;;;6.05;3.83;;;;;;;-0.70;74.78;96336.27;1906035;75;21083;-89
2021/01/08 01:56:39;;;;;;;9.48;4.30;;;;;;;-0.70;74.79;96333.16;1906144;75;21450;-89
2021/01/08 01:59:06;;;;;;;6.45;4.70;;;;;;;-0.70;74.83;96336.27;1906017;75;21492;-88
2021/01/08 02:01:33;;;;;;;8.50;4.87;;;;;;;-0.70;74.83;96336.27;1906371;75;21458;-89
2021/01/08 02:04:00;;;;;;;9.60;5.15;;;;;;;-0.76;74.85;96331.39;1906167;75;21114;-88
2021/01/08 02:06:37;;;;;;;7.20;4.62;;;;;;;-0.76;74.95;96330.09;1906174;75;21111;-88
2021/01/08 02:09:14;;;;;;;11.70;5.30;;;;;;;-0.79;74.93;96328.43;1906017;75;21182;-88
2021/01/08 02:11:48;;;;;;;8.38;4.97;;;;;;;-0.92;75.08;96311.12;1906098;75;21113;-89
2021/01/08 02:14:29;;;;;;;12.70;5.78;;;;;;;-0.85;75.17;96324.06;1906162;75;21087;-89
2021/01/08 02:16:58;;;;;;;10.75;5.50;;;;;;;-0.88;75.26;96317.48;1906582;75;21114;-89
2021/01/08 02:19:35;;;;;;;8.93;4.85;;;;;;;-0.87;75.42;96318.27;1903721;75;21858;-88
2021/01/08 02:22:20;;;;;;;10.85;5.75;;;;;;;-0.90;75.48;96322.11;1897451;76;21412;-88
2021/01/08 02:25:01;;;;;;;9.08;5.12;;;;;;;-0.88;75.58;96314.88;1897366;76;21075;-88
2021/01/08 02:27:31;;;;;;;9.65;5.58;;;;;;;-0.90;75.68;96316.39;1897662;76;21110;-89
2021/01/08 02:30:00;;;;;;;10.15;6.17;;;;;;;-0.90;75.68;96316.39;1897194;76;21136;-88
2021/01/08 02:32:28;;;;;;;10.50;5.70;;;;;;;-0.93;75.78;96306.92;1897424;76;21125;-88
2021/01/08 02:34:56;;;;;;;10.38;5.95;;;;;;;-0.96;75.93;96307.36;1897284;76;21139;-89
2021/01/08 02:37:23;;;;;;;8.70;5.00;;;;;;;-0.92;76.10;96298.11;1897400;76;21106;-89
2021/01/08 02:39:51;;;;;;;12.70;5.83;;;;;;;-0.92;76.10;96298.11;1897266;76;21112;-89
2021/01/08 02:42:19;;;;;;;9.00;5.22;;;;;;;-0.99;76.12;96283.84;1897344;76;21086;-89
2021/01/08 02:44:46;;;;;;;9.83;5.20;;;;;;;-0.87;76.19;96297.46;1897374;76;21157;-89
2021/01/08 02:47:16;;;;;;;8.90;5.80;;;;;;;-0.86;75.97;96303.75;1897536;76;21115;-88
2021/01/08 02:49:43;;;;;;;10.40;5.83;;;;;;;-1.06;75.89;96267.50;1879767;76;21112;-88
2021/01/08 02:52:11;;;;;;;8.75;5.20;;;;;;;-0.92;75.85;96303.31;1814127;78;21517;-89
2021/01/08 02:54:38;;;;;;;8.55;4.97;;;;;;;-0.92;76.25;96300.70;1847224;78;21131;-88
2021/01/08 02:57:06;;;;;;;11.12;6.15;;;;;;;-0.92;76.25;96300.70;1847416;77;21162;-89
2021/01/08 02:59:35;;;;;;;9.48;5.17;;;;;;;-0.91;76.18;96292.69;1845516;75;21132;-88
2021/01/08 03:02:03;;;;;;;9.63;5.30;;;;;;;-0.91;76.24;96297.09;1879680;76;21153;-89
2021/01/08 03:04:30;;;;;;;10.00;5.30;;;;;;;-0.95;76.35;96295.94;1852913;76;21495;-88
2021/01/08 03:06:58;;;;;;;7.90;5.10;;;;;;;-0.90;76.35;96303.39;1879662;76;21133;-89
2021/01/08 03:09:27;;;;;;;12.03;5.47;;;;;;;-1.00;76.43;96287.95;1852954;76;21115;-88
2021/01/08 03:11:56;;;;;;;11.57;6.00;;;;;;;-1.00;76.43;96287.95;1870933;76;21142;-88
2021/01/08 03:14:25;;;;;;;7.90;4.45;;;;;;;-0.92;76.47;96305.41;1853034;77;21165;-89
2021/01/08 03:16:52;;;;;;;10.88;5.72;;;;;;;-0.90;76.59;96311.70;1853049;77;21132;-88
2021/01/08 03:19:21;;;;;;;9.90;5.62;;;;;;;-0.91;76.59;96310.11;1847799;77;21131;-88
2021/01/08 03:21:48;;;;;;;7.55;4.72;;;;;;;-0.89;76.60;96309.39;1827300;78;21138;-88
2021/01/08 03:24:15;;;;;;;10.13;5.42;;;;;;;-0.87;76.66;96313.87;1827326;78;21158;-88
2021/01/08 03:26:41;;;;;;;9.20;5.08;;;;;;;-0.85;76.72;96320.95;1827259;78;21604;-88
2021/01/08 03:29:08;;;;;;;8.65;4.85;;;;;;;-0.82;76.73;96321.05;1827223;78;21107;-88
2021/01/08 03:31:36;;;;;;;10.00;5.47;;;;;;;-0.82;76.73;96321.85;1827341;78;21162;-88
2021/01/08 03:34:03;;;;;;;8.95;5.58;;;;;;;-0.81;76.76;96326.05;1827332;78;21120;-88
2021/01/08 03:36:30;;;;;;;9.30;4.97;;;;;;;-0.93;76.77;96313.43;1827255;78;21126;-89
2021/01/08 03:38:57;;;;;;;8.40;5.15;;;;;;;-0.84;77.02;96327.78;1827282;78;21477;-89
2021/01/08 03:41:24;;;;;;;9.50;4.87;;;;;;;-0.84;77.02;96327.78;1827186;78;21137;-89
2021/01/08 03:43:51;;;;;;;7.03;4.80;;;;;;;-0.82;76.95;96327.05;1827308;78;21249;-89
2021/01/08 03:46:19;;;;;;;7.35;4.67;;;;;;;-0.83;77.04;96328.57;1827250;78;21268;-88
2021/01/08 03:48:46;;;;;;;8.50;4.67;;;;;;;-0.84;77.00;96326.48;1827281;78;21134;-89
2021/01/08 03:51:13;;;;;;;7.20;4.25;;;;;;;-0.84;77.02;96325.17;1826870;77;21138;-88
2021/01/08 03:53:40;;;;;;;7.85;4.17;;;;;;;-0.87;77.00;96326.08;1827274;78;21123;-88
2021/01/08 03:56:07;;;;;;;10.95;4.75;;;;;;;-0.89;77.00;96327.60;1827249;78;21127;-88
2021/01/08 03:58:34;;;;;;;10.30;5.85;;;;;;;-0.93;77.15;96322.53;1827561;78;21135;-89
2021/01/08 04:01:00;;;;;;;10.50;5.83;;;;;;;-0.97;77.24;96322.67;1827215;78;21134;-89
2021/01/08 04:03:28;;;;;;;9.98;5.90;;;;;;;-0.97;77.34;96325.28;1827242;78;21637;-89
2021/01/08 04:05:55;;;;;;;10.25;5.60;;;;;;;-0.99;77.43;96321.56;1827225;78;21276;-89
2021/01/08 04:08:21;;;;;;;11.43;6.37;;;;;;;-1.01;77.54;96319.68;1827472;78;21471;-89
2021/01/08 04:10:49;;;;;;;8.08;4.95;;;;;;;-1.01;77.62;96315.78;1827163;78;21506;-88
2021/01/08 04:13:16;;;;;;;8.70;5.53;;;;;;;-1.03;77.71;96301.39;1841098;77;21166;-88
2021/01/08 04:15:43;;;;;;;9.68;5.08;;;;;;;-1.05;77.76;96300.81;1845344;78;21134;-88
2021/01/08 04:18:09;;;;;;;7.00;4.50;;;;;;;-1.07;78.07;96295.03;1845499;78;21147;-88
2021/01/08 04:20:36;;;;;;;10.65;6.03;;;;;;;-1.07;78.07;96295.03;1845887;76;21134;-89
2021/01/08 04:23:03;;;;;;;10.18;5.97;;;;;;;-1.08;77.92;96301.25;1845251;78;21138;-89
2021/01/08 04:25:30;;;;;;;8.20;4.95;;;;;;;-1.08;77.87;96299.95;1845282;78;21497;-88
2021/01/08 04:27:57;;;;;;;9.03;4.03;;;;;;;-1.11;77.83;96279.56;1845234;78;21482;-89
2021/01/08 04:30:24;;;;;;;7.37;4.00;;;;;;;-1.03;77.68;96290.98;1845207;78;21517;-88
2021/01/08 04:32:51;;;;;;;5.12;3.77;;;;;;;-1.03;77.58;96294.89;1845303;78;21122;-88
2021/01/08 04:35:18;;;;;;;12.55;6.20;;;;;;;-1.03;77.66;96288.39;1845196;78;21126;-89
2021/01/08 04:37:45;;;;;;;7.87;4.60;;;;;;;-1.02;77.65;96291.28;1845529;78;21141;-89
2021/01/08 04:40:13;;;;;;;4.75;3.45;;;;;;;-1.01;77.64;96292.88;1845213;78;21134;-88
2021/01/08 04:42:40;;;;;;;8.60;3.67;;;;;;;-1.02;77.55;96290.77;1819455;78;21130;-88
2021/01/08 04:45:08;;;;;;;10.48;6.25;;;;;;;-1.02;77.42;96299.09;1845187;78;21126;-89
2021/01/08 04:47:37;;;;;;;13.25;6.15;;;;;;;-1.01;77.58;96296.77;1845287;78;21159;-89
2021/01/08 04:50:06;;;;;;;11.35;5.80;;;;;;;-0.99;77.63;96302.55;1846099;76;21556;-88
2021/01/08 04:52:34;;;;;;;10.00;5.55;;;;;;;-0.98;77.51;96297.67;1845517;78;21115;-88
2021/01/08 04:55:02;;;;;;;7.87;4.78;;;;;;;-1.00;77.50;96291.86;1845612;78;21464;-88
2021/01/08 04:57:32;;;;;;;7.83;4.60;;;;;;;-0.98;77.54;96296.37;1845459;78;21131;-88
2021/01/08 04:59:59;;;;;;;7.97;3.90;;;;;;;-0.99;77.39;96303.34;1819818;78;21541;-88
2021/01/08 05:02:26;;;;;;;8.90;5.15;;;;;;;-1.06;77.49;96281.02;1845424;78;21143;-88
2021/01/08 05:04:54;;;;;;;9.10;4.90;;;;;;;-0.95;77.36;96297.23;1845508;78;21125;-89
2021/01/08 05:07:22;;;;;;;9.00;5.08;;;;;;;-0.95;77.36;96297.23;1845443;78;21120;-89
2021/01/08 05:09:49;;;;;;;8.93;5.35;;;;;;;-0.94;77.11;96291.02;1845412;78;21139;-89
2021/01/08 05:12:16;;;;;;;9.95;5.85;;;;;;;-0.92;77.32;96287.70;1841045;78;21177;-89
2021/01/08 05:14:44;;;;;;;8.33;4.45;;;;;;;-0.92;77.32;96287.70;1828550;78;21262;-89
2021/01/08 05:17:11;;;;;;;8.03;4.65;;;;;;;-0.92;77.16;96295.00;1828530;78;21502;-88
2021/01/08 05:19:43;;;;;;;8.58;4.47;;;;;;;-0.93;77.18;96299.91;1829063;77;21314;-89
2021/01/08 05:22:10;;;;;;;8.18;4.90;;;;;;;-0.94;77.17;96295.72;1827473;78;21140;-88
2021/01/08 05:24:38;;;;;;;5.47;3.70;;;;;;;-0.93;77.41;96300.42;1805528;78;21135;-89
2021/01/08 05:27:05;;;;;;;8.93;4.50;;;;;;;-0.94;77.29;96300.13;1828458;78;21289;-88
2021/01/08 05:29:32;;;;;;;6.65;3.45;;;;;;;-0.92;77.30;96305.91;1828451;78;21533;-88
2021/01/08 05:32:00;;;;;;;9.43;5.35;;;;;;;-0.92;77.28;96303.31;1828551;78;21638;-88
2021/01/08 05:34:29;;;;;;;7.03;4.25;;;;;;;-0.90;77.31;96302.59;1805563;78;21120;-89
2021/01/08 05:36:58;;;;;;;7.67;4.20;;;;;;;-0.89;77.34;96302.88;1828732;78;21123;-88
2021/01/08 05:39:27;;;;;;;7.93;4.40;;;;;;;-0.89;77.36;96309.39;1828778;78;21171;-88
2021/01/08 05:41:55;;;;;;;7.58;4.62;;;;;;;-0.90;77.25;96309.89;1828462;78;21280;-89
2021/01/08 05:44:21;;;;;;;7.50;5.20;;;;;;;-0.88;77.35;96314.88;1805726;78;21155;-89
2021/01/08 05:46:51;;;;;;;8.23;3.92;;;;;;;-0.89;77.41;96311.98;1828464;78;21274;-88
2021/01/08 05:49:18;;;;;;;8.38;4.40;;;;;;;-0.90;77.48;96310.40;1806128;77;21503;-89
2021/01/08 05:51:45;;;;;;;11.93;5.60;;;;;;;-0.91;77.37;96314.80;1805699;78;21112;-88
2021/01/08 05:54:14;;;;;;;8.70;4.58;;;;;;;-0.92;77.46;96309.31;1805501;78;21144;-88
2021/01/08 05:56:41;;;;;;;9.68;5.03;;;;;;;-1.01;77.56;96291.57;1828516;78;21250;-88
2021/01/08 05:59:09;;;;;;;8.55;4.05;;;;;;;-1.01;77.56;96291.57;1828523;78;21289;-88
2021/01/08 06:01:39;;;;;;;9.83;5.17;;;;;;;-0.93;77.58;96312.92;1828661;78;21069;-89
2021/01/08 06:04:08;;;;;;;10.05;4.50;;;;;;;-0.91;77.57;96311.41;1828780;78;21116;-88
2021/01/08 06:06:44;;;;;;;5.03;3.40;;;;;;;-0.91;77.53;96307.00;1828587;78;21144;-89
2021/01/08 06:09:15;;;;;;;7.33;4.80;;;;;;;-0.92;77.35;96305.41;1828497;78;21128;-88
2021/01/08 06:11:46;;;;;;;8.88;5.47;;;;;;;-0.93;77.24;96308.23;1828678;78;21266;-89
2021/01/08 06:14:17;;;;;;;9.63;5.28;;;;;;;-0.92;77.33;96300.70;1828380;78;21266;-89
2021/01/08 06:16:50;;;;;;;11.35;6.22;;;;;;;-0.91;77.39;96307.00;1828457;78;21122;-89
2021/01/08 06:19:17;;;;;;;9.25;5.42;;;;;;;-0.99;77.23;96294.75;1829069;77;21545;-89
2021/01/08 06:21:47;;;;;;;8.93;5.42;;;;;;;-0.99;77.23;96294.75;1828376;78;21097;-88
2021/01/08 06:24:25;;;;;;;11.00;4.67;;;;;;;-0.91;77.24;96307.00;1828513;78;21271;-88
2021/01/08 06:26:53;;;;;;;8.03;4.55;;;;;;;-0.91;77.26;96304.91;1823791;78;21254;-88
2021/01/08 06:29:24;;;;;;;9.25;5.37;;;;;;;-0.91;77.23;96310.11;1828521;78;21488;-88
2021/01/08 06:31:53;;;;;;;10.15;5.90;;;;;;;-0.91;77.23;96310.11;1828451;78;21255;-88
2021/01/08 06:34:29;;;;;;;11.05;6.60;;;;;;;-0.91;77.28;96313.50;1828742;78;21135;-88
2021/01/08 06:37:06;;;;;;;10.20;5.75;;;;;;;-0.89;77.29;96309.39;1828394;78;21113;-89
2021/01/08 06:39:44;;;;;;;9.03;4.72;;;;;;;-0.91;77.25;96310.91;1828523;78;21312;-89
2021/01/08 06:42:30;;;;;;;8.70;5.20;;;;;;;-0.91;77.25;96307.50;1828357;78;21450;-88
2021/01/08 06:44:59;;;;;;;9.58;4.15;;;;;;;-0.92;77.24;96310.61;1828442;78;21148;-88
2021/01/08 06:47:29;;;;;;;11.12;6.67;;;;;;;-0.92;77.24;96310.61;1828370;78;21275;-88
2021/01/08 06:49:58;;;;;;;9.28;5.85;;;;;;;-0.93;77.27;96314.73;1828884;77;21285;-88
2021/01/08 06:52:30;;;;;;;12.25;6.67;;;;;;;-0.93;77.33;96316.03;1828570;78;21278;-88
2021/01/08 06:54:57;;;;;;;12.47;5.50;;;;;;;-0.92;77.26;96312.42;1828938;78;21127;-88
2021/01/08 06:57:24;;;;;;;11.12;6.10;;;;;;;-0.93;77.31;96324.63;1828313;78;21144;-88
2021/01/08 07:00:02;;;;;;;8.15;5.60;;;;;;;-0.93;77.26;96315.52;1828325;78;21151;-88
2021/01/08 07:02:32;;;;;;;8.40;5.08;;;;;;;-0.93;77.26;96315.52;1828373;78;21143;-88
2021/01/08 07:05:01;;;;;;;10.13;6.35;;;;;;;-0.93;77.25;96320.73;1828536;78;21650;-88
2021/01/08 07:07:31;;;;;;;10.98;5.15;;;;;;;-0.91;77.18;96323.12;1828498;78;21254;-88
2021/01/08 07:09:58;;;;;;;12.55;6.83;;;;;;;-0.90;77.21;96326.01;1828277;78;21633;-87
2021/01/08 07:12:27;;;;;;;10.10;5.80;;;;;;;-0.87;77.23;96329.98;1829292;78;21281;-88
2021/01/08 07:14:55;;;;;;;13.93;7.37;;;;;;;-0.88;77.25;96331.80;1847625;78;21107;-88
2021/01/08 07:17:32;;;;;;;10.48;6.25;;;;;;;-0.96;77.26;96316.47;1847103;78;21223;-88
2021/01/08 07:20:03;;;;;;;16.95;7.83;;;;;;;-0.96;77.26;96316.47;1858701;75;21285;-88
2021/01/08 07:22:39;;;;;;;;;;;;;;;-0.85;77.29;96333.96;1873609;77;21499;-88
2021/01/08 07:25:13;;;;;;;9.90;5.55;;;;;;;-0.82;77.23;96341.87;1871205;76;20133;-88
2021/01/08 07:27:43;;;;;;;12.03;7.78;;;;;;;-0.91;77.33;96331.72;1869720;77;21115;-88
2021/01/08 07:30:13;;;;;;;14.95;7.42;;;;;;;-0.91;77.33;96331.72;1870728;76;21485;-88
2021/01/08 07:32:49;;;;;;;13.62;7.58;;;;;;;-0.77;77.23;96351.92;1870827;76;21147;-88
2021/01/08 07:35:33;;;;;;;8.85;5.35;;;;;;;-0.74;77.18;96346.28;1870801;76;21112;-88
2021/01/08 07:38:08;;;;;;;12.45;7.78;;;;;;;-0.71;77.12;96352.87;1870729;77;21258;-88
2021/01/08 07:40:40;;;;;;;16.25;8.73;;;;;;;-0.68;77.16;96358.97;1870738;76;21281;-88
2021/01/08 07:43:10;;;;;;;14.13;8.08;;;;;;;-0.68;77.06;96352.47;1870718;76;21120;-88
2021/01/08 07:45:58;;;;;;;14.83;8.40;;;;;;;-0.70;77.04;96353.98;1871052;76;21112;-88
2021/01/08 07:48:35;;;;;;;14.38;7.72;;;;;;;-0.66;77.27;96356.44;1870843;77;21115;-88
2021/01/08 07:51:06;;;;;;;13.35;7.65;;;;;;;-0.61;77.23;96360.50;1894324;76;21486;-88
2021/01/08 07:53:50;;;;;;;12.98;7.50;;;;;;;-0.53;77.09;96361.25;1897408;76;21106;-88
2021/01/08 07:56:28;;;;;;;14.18;7.60;;;;;;;-0.53;77.09;96361.25;1897380;76;21099;-88
2021/01/08 07:59:03;;;;;;;13.60;7.67;;;;;;;-0.49;77.21;96359.80;1897564;75;21153;-89
2021/01/08 08:01:37;;;;;;;12.63;7.78;;;;;;;-0.46;77.04;96360.16;1897528;76;21091;-88
2021/01/08 08:04:09;;;;;;;14.53;7.20;;;;;;;-0.42;76.89;96367.06;1897401;76;21471;-88
2021/01/08 08:06:39;;;;;;;11.63;6.60;;;;;;;-0.38;76.86;96360.41;1897395;76;21095;-88
2021/01/08 08:09:10;;;;;;;13.75;8.05;;;;;;;-0.33;76.81;96361.84;1897660;75;21621;-88
2021/01/08 08:11:37;;;;;;;18.90;8.25;;;;;;;-0.34;76.64;96364.95;1897408;76;21098;-88
2021/01/08 08:14:09;;;;;;;12.18;6.65;;;;;;;-0.32;76.78;96363.44;1895760;76;21107;-88
2021/01/08 08:16:39;;;;;;;12.20;7.70;;;;;;;-0.30;76.43;96357.00;1895129;76;21237;-88
2021/01/08 08:19:08;;;;;;;12.87;7.80;;;;;;;-0.30;76.55;96363.52;1892876;76;21459;-88
2021/01/08 08:21:37;;;;;;;11.68;6.90;;;;;;;-0.28;76.50;96368.53;1864811;77;21844;-88
2021/01/08 08:24:06;;;;;;;13.40;6.75;;;;;;;-0.24;76.56;96369.69;1864518;77;21253;-88
2021/01/08 08:26:35;;;;;;;11.75;7.05;;;;;;;-0.22;76.41;96370.26;1864598;77;21603;-88
2021/01/08 08:29:17;;;;;;;11.80;6.75;;;;;;;-0.17;76.63;96364.39;1864586;77;21622;-88
2021/01/08 08:31:47;;;;;;;10.95;6.03;;;;;;;-0.13;76.27;96368.18;1864508;77;21256;-88
2021/01/08 08:34:27;;;;;;;14.38;7.85;;;;;;;-0.11;76.04;96372.16;1864569;77;21523;-88
2021/01/08 08:36:55;;;;;;;11.50;7.12;;;;;;;-0.08;76.22;96369.11;1864929;77;21249;-88
2021/01/08 08:39:22;;;;;;;8.48;5.10;;;;;;;-0.14;75.52;96366.56;1838177;77;21152;-88
2021/01/08 08:41:49;;;;;;;12.63;6.95;;;;;;;-0.08;75.65;96378.23;1864546;77;21130;-88
2021/01/08 08:44:19;;;;;;;14.20;7.87;;;;;;;-0.08;75.65;96378.23;1864667;77;21269;-88
2021/01/08 08:46:58;;;;;;;14.38;7.12;;;;;;;-0.06;75.81;96376.20;1865010;77;21245;-89
2021/01/08 08:49:31;;;;;;;13.15;7.83;;;;;;;-0.01;75.91;96378.94;1864988;76;21297;-88
2021/01/08 08:51:59;;;;;;;12.07;7.65;;;;;;;0.03;75.98;96381.94;1864688;77;21315;-88
2021/01/08 08:54:26;;;;;;;13.83;7.33;;;;;;;0.10;75.99;96381.34;1864618;77;21284;-88
2021/01/08 08:57:01;;;;;;;13.00;6.78;;;;;;;0.16;75.69;96383.61;1864559;77;21257;-88
2021/01/08 08:59:43;;;;;;;13.00;7.35;;;;;;;0.20;75.69;96382.94;1864557;77;21119;-88
2021/01/08 09:02:18;;;;;;;11.15;6.42;;;;;;;0.28;75.76;96381.84;1864773;77;21257;-88
2021/01/08 09:04:57;;;;;;;14.40;8.65;;;;;;;0.35;75.62;96382.56;1864533;77;21539;-88
2021/01/08 09:07:41;;;;;;;17.65;9.55;;;;;;;0.40;75.51;96380.59;1864536;77;21265;-88
2021/01/08 09:10:28;;;;;;;13.85;8.50;;;;;;;0.43;75.31;96379.67;1864431;77;21265;-88
2021/01/08 09:13:03;;;;;;;17.45;8.88;;;;;;;0.44;75.18;96368.22;1864456;77;21265;-88
2021/01/08 09:15:51;;;;;;;20.32;10.78;;;;;;;0.49;75.32;96372.77;1861880;77;21099;-89
2021/01/08 09:18:45;;;;;;;29.12;17.82;;;;;;;0.56;75.33;96371.69;1861865;77;21286;-88
2021/01/08 09:21:28;;;;;;;34.55;16.52;;;;;;;0.61;75.01;96373.63;1848853;76;21588;-88
2021/01/08 09:24:03;;;;;;;26.68;11.95;;;;;;;0.63;74.97;96372.09;1847592;78;21260;-89
2021/01/08 09:26:30;;;;;;;20.57;8.30;;;;;;;0.67;74.97;96371.93;1847557;78;21490;-89
2021/01/08 09:28:58;;;;;;;15.18;8.00;;;;;;;0.67;74.63;96371.42;1847535;78;21489;-88
2021/01/08 09:31:44;;;;;;;17.27;8.15;;;;;;;0.64;74.66;96374.98;1847561;78;21627;-89
2021/01/08 09:34:12;;;;;;;11.15;6.62;;;;;;;0.65;74.71;96377.88;1847603;78;21441;-89
2021/01/08 09:36:41;;;;;;;11.75;7.05;;;;;;;0.63;74.61;96383.83;1847772;78;21117;-89
2021/01/08 09:39:12;;;;;;;11.68;6.70;;;;;;;0.63;74.68;96379.41;1847452;78;21479;-89
2021/01/08 09:41:43;;;;;;;11.05;6.65;;;;;;;0.65;74.29;96379.98;1847676;78;21086;-89
2021/01/08 09:44:15;;;;;;;7.97;4.55;;;;;;;0.61;74.16;96380.66;1847726;78;21097;-89
2021/01/08 09:46:56;;;;;;;8.33;5.05;;;;;;;0.56;73.21;96376.91;1847523;78;21244;-88
2021/01/08 09:49:47;;;;;;;15.28;7.45;;;;;;;0.57;73.83;96379.00;1851387;75;21276;-89
2021/01/08 09:52:15;;;;;;;12.28;7.53;;;;;;;0.61;74.20;96375.44;1862148;77;21102;-88
2021/01/08 09:54:51;;;;;;;13.95;7.25;;;;;;;0.70;74.50;96376.70;1861869;77;21296;-89
2021/01/08 09:57:34;;;;;;;13.88;7.78;;;;;;;0.77;74.46;96377.42;1862196;77;21456;-89
2021/01/08 10:00:07;;;;;;;13.55;7.65;;;;;;;0.85;74.45;96379.73;1861854;77;21261;-88
2021/01/08 10:02:44;;;;;;;15.40;8.88;;;;;;;0.89;74.25;96369.92;1862021;77;21099;-88
2021/01/08 10:05:26;;;;;;;14.55;8.40;;;;;;;1.00;74.35;96369.67;1861735;77;21693;-88
2021/01/08 10:07:54;;;;;;;17.15;10.05;;;;;;;1.13;74.06;96364.26;1861906;77;21276;-89
2021/01/08 10:10:32;;;;;;;15.05;8.40;;;;;;;1.18;73.30;96366.98;1861749;77;21270;-89
2021/01/08 10:13:00;;;;;;;15.32;9.43;;;;;;;1.22;72.99;96354.78;1862068;77;21267;-89
2021/01/08 10:15:47;;;;;;;9.25;6.12;;;;;;;1.10;72.15;96358.67;1861661;77;21112;-89
2021/01/08 10:18:22;;;;;;;14.30;8.78;;;;;;;1.05;71.30;96369.79;1861861;77;21253;-88
2021/01/08 10:20:55;;;;;;;17.30;9.45;;;;;;;0.95;71.13;96366.92;1862262;76;21245;-89
2021/01/08 10:23:26;;;;;;;12.82;8.23;;;;;;;0.95;71.21;96359.09;1861909;77;21225;-89
2021/01/08 10:25:56;;;;;;;16.40;9.98;;;;;;;0.95;70.84;96362.20;1861832;77;21128;-89
2021/01/08 10:28:26;;;;;;;19.50;10.20;;;;;;;1.01;71.94;96353.50;1858180;77;21111;-89
2021/01/08 10:30:55;;;;;;;14.13;8.50;;;;;;;1.10;72.22;96350.33;1861773;77;21146;-89
2021/01/08 10:33:26;;;;;;;14.70;9.30;;;;;;;1.23;71.99;96357.67;1862202;77;21123;-89
2021/01/08 10:35:55;;;;;;;12.30;7.22;;;;;;;1.36;71.94;96343.09;1861830;77;21123;-89
2021/01/08 10:38:24;;;;;;;15.55;8.10;;;;;;;1.51;71.62;96342.14;1862110;77;21614;-88
2021/01/08 10:40:52;;;;;;;12.05;7.12;;;;;;;1.59;71.45;96343.11;1861828;77;21648;-89
2021/01/08 10:43:19;;;;;;;12.03;7.28;;;;;;;1.67;70.68;96346.67;1861855;77;21249;-89
2021/01/08 10:45:47;;;;;;;11.10;6.50;;;;;;;1.77;71.47;96344.80;1861716;77;21268;-89
2021/01/08 10:48:14;;;;;;;11.08;7.37;;;;;;;1.86;70.25;96348.67;1861746;77;21245;-89
2021/01/08 10:50:41;;;;;;;11.65;7.40;;;;;;;1.78;70.64;96340.66;1851670;76;21497;-89
2021/01/08 10:53:09;;;;;;;15.50;8.38;;;;;;;1.70;70.21;96342.32;1847641;78;21600;-89
2021/01/08 10:55:35;;;;;;;10.53;5.72;;;;;;;1.62;69.98;96337.94;1847476;78;21672;-89
2021/01/08 10:58:03;;;;;;;11.55;6.58;;;;;;;1.44;68.61;96338.86;1847428;78;21504;-89
2021/01/08 11:00:30;;;;;;;11.40;7.25;;;;;;;1.34;69.76;96338.61;1847355;78;21220;-89
2021/01/08 11:02:57;;;;;;;14.23;8.50;;;;;;;1.32;70.03;96345.38;1847600;78;21595;-89
2021/01/08 11:05:24;;;;;;;14.63;8.68;;;;;;;1.31;69.94;96339.08;1847440;78;21252;-89
2021/01/08 11:07:51;;;;;;;12.93;7.55;;;;;;;1.28;69.61;96339.53;1847458;78;21117;-89
2021/01/08 11:10:19;;;;;;;15.00;7.78;;;;;;;1.28;69.46;96331.70;1847367;78;21480;-89
2021/01/08 11:12:46;;;;;;;12.80;7.05;;;;;;;1.27;69.74;96326.16;1847795;78;21129;-89
2021/01/08 11:15:14;;;;;;;12.73;7.47;;;;;;;1.27;69.28;96325.68;1863246;77;21135;-89
2021/01/08 11:17:41;;;;;;;11.43;6.35;;;;;;;1.28;68.90;96325.97;1868529;77;21470;-89
2021/01/08 11:20:12;;;;;;;13.10;7.62;;;;;;;1.29;68.33;96325.45;1886732;75;21470;-89
2021/01/08 11:22:38;;;;;;;12.53;7.37;;;;;;;1.38;68.89;96324.08;1903593;75;21123;-89
2021/01/08 11:25:07;;;;;;;12.65;6.78;;;;;;;1.49;69.45;96320.67;1903503;75;21133;-89
2021/01/08 11:27:34;;;;;;;9.13;5.35;;;;;;;1.55;68.99;96322.39;1903835;75;21114;-89
2021/01/08 11:30:01;;;;;;;9.48;5.30;;;;;;;1.48;67.45;96320.39;1903558;75;21249;-89
2021/01/08 11:32:28;;;;;;;10.40;5.78;;;;;;;1.46;67.80;96318.52;1903934;75;21229;-89
2021/01/08 11:34:55;;;;;;;11.12;6.72;;;;;;;1.39;67.32;96324.36;1903986;75;21122;-89
2021/01/08 11:37:22;;;;;;;10.50;6.12;;;;;;;1.38;68.28;96330.61;1903698;75;21276;-88
2021/01/08 11:39:49;;;;;;;10.08;5.78;;;;;;;1.45;68.25;96315.62;1903656;75;21123;-89
2021/01/08 11:42:16;;;;;;;9.58;5.55;;;;;;;1.50;68.27;96315.73;1903690;75;21292;-89
2021/01/08 11:44:44;;;;;;;10.72;6.37;;;;;;;1.44;67.69;96316.66;1903654;75;21135;-89